createdAt,value
2018-11-13T00:00:31.405Z,100.00
2018-11-13T00:03:01.478Z,100.00
2018-11-13T00:05:30.714Z,100.00
2018-11-13T00:07:59.826Z,100.00
2018-11-13T00:10:28.920Z,100.00
2018-11-13T00:12:58.034Z,100.00
2018-11-13T00:15:27.254Z,100.00
2018-11-13T00:17:56.577Z,100.00
2018-11-13T00:20:25.898Z,100.00
2018-11-13T00:22:54.932Z,100.00
2018-11-13T00:25:24.031Z,100.00
2018-11-13T00:27:53.161Z,100.00
2018-11-13T00:30:24.209Z,100.00
2018-11-13T00:32:53.541Z,100.00
2018-11-13T00:35:23.238Z,100.00
2018-11-13T00:37:52.533Z,100.00
2018-11-13T00:40:21.639Z,100.00
2018-11-13T00:42:50.941Z,100.00
2018-11-13T00:45:20.173Z,100.00
2018-11-13T00:47:49.270Z,100.00
2018-11-13T00:50:19.450Z,100.00
2018-11-13T00:52:49.008Z,100.00
2018-11-13T00:55:18.128Z,100.00
2018-11-13T00:57:48.817Z,100.00
2018-11-13T01:00:19.139Z,100.00
2018-11-13T01:02:48.205Z,100.00
2018-11-13T01:05:18.474Z,100.00
2018-11-13T01:07:48.463Z,100.00
2018-11-13T01:10:18.342Z,100.00
2018-11-13T01:12:47.987Z,100.00
2018-11-13T01:15:18.396Z,100.00
2018-11-13T01:17:48.169Z,100.00
2018-11-13T01:20:18.031Z,100.00
2018-11-13T01:22:47.280Z,100.00
2018-11-13T01:25:17.116Z,100.00
2018-11-13T01:27:46.707Z,100.00
2018-11-13T01:30:16.500Z,100.00
2018-11-13T01:32:46.043Z,100.00
2018-11-13T01:35:16.624Z,100.00
2018-11-13T01:37:45.881Z,100.00
2018-11-13T01:40:18.197Z,100.00
2018-11-13T01:42:47.712Z,100.00
2018-11-13T01:45:17.819Z,100.00
2018-11-13T01:47:47.737Z,100.00
2018-11-13T01:50:17.909Z,100.00
2018-11-13T01:52:47.038Z,100.00
2018-11-13T01:55:16.503Z,100.00
2018-11-13T01:57:45.678Z,100.00
2018-11-13T02:00:21.094Z,100.00
2018-11-13T02:02:51.718Z,100.00
2018-11-13T02:05:22.230Z,100.00
2018-11-13T02:07:51.826Z,100.00
2018-11-13T02:10:21.281Z,100.00
2018-11-13T02:12:50.977Z,100.00
2018-11-13T02:15:20.698Z,100.00
2018-11-13T02:17:49.551Z,100.00
2018-11-13T02:20:21.979Z,100.00
2018-11-13T02:22:51.410Z,100.00
2018-11-13T02:25:21.140Z,100.00
2018-11-13T02:27:50.649Z,100.00
2018-11-13T02:30:22.138Z,100.00
2018-11-13T02:32:51.532Z,100.00
2018-11-13T02:35:20.821Z,100.00
2018-11-13T02:37:49.983Z,100.00
2018-11-13T02:40:19.174Z,100.00
2018-11-13T02:42:48.346Z,100.00
2018-11-13T02:45:19.594Z,100.00
2018-11-13T02:47:48.778Z,100.00
2018-11-13T02:50:19.150Z,100.00
2018-11-13T02:52:48.338Z,100.00
2018-11-13T02:55:17.587Z,100.00
2018-11-13T02:57:47.372Z,100.00
2018-11-13T03:00:18.492Z,100.00
2018-11-13T03:02:47.689Z,100.00
2018-11-13T03:05:18.350Z,100.00
2018-11-13T03:07:47.989Z,100.00
2018-11-13T03:10:18.026Z,100.00
2018-11-13T03:12:47.253Z,100.00
2018-11-13T03:15:17.492Z,100.00
2018-11-13T03:17:46.756Z,100.00
2018-11-13T03:20:18.258Z,100.00
2018-11-13T03:22:48.256Z,100.00
2018-11-13T03:25:18.642Z,100.00
2018-11-13T03:27:47.873Z,100.00
2018-11-13T03:30:23.929Z,100.00
2018-11-13T03:32:53.560Z,100.00
2018-11-13T03:35:22.782Z,100.00
2018-11-13T03:37:51.918Z,100.00
2018-11-13T03:40:21.153Z,100.00
2018-11-13T03:42:50.810Z,100.00
2018-11-13T03:45:20.249Z,100.00
2018-11-13T03:47:49.448Z,100.00
2018-11-13T03:50:19.929Z,100.00
2018-11-13T03:52:49.177Z,100.00
2018-11-13T03:55:19.306Z,100.00
2018-11-13T03:57:49.149Z,100.00
2018-11-13T04:00:20.778Z,100.00
2018-11-13T04:02:50.376Z,100.00
2018-11-13T04:05:20.613Z,100.00
2018-11-13T04:07:51.059Z,100.00
2018-11-13T04:10:20.998Z,100.00
2018-11-13T04:12:50.177Z,100.00
2018-11-13T04:15:20.887Z,100.00
2018-11-13T04:17:50.142Z,100.00
2018-11-13T04:20:21.778Z,100.00
2018-11-13T04:22:50.922Z,100.00
2018-11-13T04:25:20.202Z,100.00
2018-11-13T04:27:49.613Z,100.00
2018-11-13T04:30:19.210Z,100.00
2018-11-13T04:32:48.381Z,100.00
2018-11-13T04:35:18.407Z,100.00
2018-11-13T04:37:47.618Z,100.00
2018-11-13T04:40:18.021Z,100.00
2018-11-13T04:42:48.426Z,100.00
2018-11-13T04:45:19.334Z,100.00
2018-11-13T04:47:49.084Z,100.00
2018-11-13T04:50:19.298Z,100.00
2018-11-13T04:52:48.489Z,100.00
2018-11-13T04:55:18.289Z,100.00
2018-11-13T04:57:48.430Z,100.00
2018-11-13T05:00:18.998Z,100.00
2018-11-13T05:02:48.294Z,100.00
2018-11-13T05:05:18.171Z,100.00
2018-11-13T05:07:49.726Z,100.00
2018-11-13T05:10:19.004Z,100.00
2018-11-13T05:12:48.726Z,100.00
2018-11-13T05:15:18.192Z,100.00
2018-11-13T05:17:47.961Z,100.00
2018-11-13T05:20:17.990Z,100.00
2018-11-13T05:22:47.258Z,100.00
2018-11-13T05:25:17.726Z,100.00
2018-11-13T05:27:46.882Z,100.00
2018-11-13T05:30:22.767Z,100.00
2018-11-13T05:32:51.925Z,100.00
2018-11-13T05:35:21.905Z,100.00
2018-11-13T05:37:52.203Z,100.00
2018-11-13T05:40:22.702Z,100.00
2018-11-13T05:42:51.915Z,100.00
2018-11-13T05:45:22.518Z,100.00
2018-11-13T05:47:52.229Z,100.00
2018-11-13T05:50:21.514Z,100.00
2018-11-13T05:52:51.942Z,100.00
2018-11-13T05:55:21.494Z,100.00
2018-11-13T05:57:51.063Z,100.00
2018-11-13T06:00:22.894Z,100.00
2018-11-13T06:02:52.294Z,100.00
2018-11-13T06:05:21.567Z,100.00
2018-11-13T06:07:50.706Z,100.00
2018-11-13T06:10:19.970Z,100.00
2018-11-13T06:12:49.118Z,100.00
2018-11-13T06:15:18.327Z,100.00
2018-11-13T06:17:47.509Z,100.00
2018-11-13T06:20:17.043Z,100.00
2018-11-13T06:22:46.322Z,100.00
2018-11-13T06:25:16.551Z,100.00
2018-11-13T06:27:46.807Z,100.00
2018-11-13T06:30:24.062Z,100.00
2018-11-13T06:32:53.437Z,100.00
2018-11-13T06:35:22.604Z,100.00
2018-11-13T06:37:51.785Z,100.00
2018-11-13T06:40:21.002Z,100.00
2018-11-13T06:42:50.675Z,100.00
2018-11-13T06:45:21.304Z,100.00
2018-11-13T06:47:51.072Z,100.00
2018-11-13T06:50:20.214Z,100.00
2018-11-13T06:52:50.240Z,100.00
2018-11-13T06:55:26.255Z,100.00
2018-11-13T06:57:55.455Z,100.00
2018-11-13T07:00:25.194Z,100.00
2018-11-13T07:02:54.578Z,100.00
2018-11-13T07:05:24.908Z,100.00
2018-11-13T07:07:54.103Z,100.00
2018-11-13T07:10:25.218Z,100.00
2018-11-13T07:13:01.137Z,100.00
2018-11-13T07:15:31.612Z,100.00
2018-11-13T07:18:02.531Z,100.00
2018-11-13T07:20:33.027Z,100.00
2018-11-13T07:23:02.618Z,100.00
2018-11-13T07:25:32.158Z,100.00
2018-11-13T07:28:01.642Z,100.00
2018-11-13T07:30:31.659Z,100.00
2018-11-13T07:33:01.466Z,100.00
2018-11-13T07:35:30.736Z,100.00
2018-11-13T07:38:00.813Z,100.00
2018-11-13T07:40:30.315Z,100.00
2018-11-13T07:42:59.952Z,100.00
2018-11-13T07:45:29.097Z,100.00
2018-11-13T07:47:58.596Z,100.00
2018-11-13T07:50:27.707Z,100.00
2018-11-13T07:52:59.726Z,100.00
2018-11-13T07:55:28.922Z,100.00
2018-11-13T07:57:58.251Z,100.00
2018-11-13T08:00:27.553Z,100.00
2018-11-13T08:03:01.344Z,100.00
2018-11-13T08:05:30.698Z,100.00
2018-11-13T08:08:00.253Z,100.00
2018-11-13T08:10:29.495Z,100.00
2018-11-13T08:12:58.339Z,100.00
2018-11-13T08:15:28.864Z,100.00
2018-11-13T08:17:58.051Z,100.00
2018-11-13T08:20:27.231Z,100.00
2018-11-13T08:22:57.577Z,100.00
2018-11-13T08:25:27.217Z,100.00
2018-11-13T08:27:57.155Z,100.00
2018-11-13T08:30:27.047Z,100.00
2018-11-13T08:32:56.978Z,100.00
2018-11-13T08:35:26.939Z,100.00
2018-11-13T08:37:56.233Z,100.00
2018-11-13T08:40:26.225Z,100.00
2018-11-13T08:42:55.475Z,100.00
2018-11-13T08:45:24.618Z,100.00
2018-11-13T08:47:53.797Z,100.00
2018-11-13T08:50:23.464Z,100.00
2018-11-13T08:52:53.434Z,100.00
2018-11-13T08:55:22.303Z,100.00
2018-11-13T08:57:54.539Z,100.00
2018-11-13T09:00:24.154Z,100.00
2018-11-13T09:02:57.043Z,100.00
2018-11-13T09:05:27.124Z,100.00
2018-11-13T09:07:56.616Z,100.00
2018-11-13T09:10:28.923Z,100.00
2018-11-13T09:12:58.746Z,100.00
2018-11-13T09:15:30.619Z,100.00
2018-11-13T09:18:00.059Z,100.00
2018-11-13T09:20:29.534Z,100.00
2018-11-13T09:23:01.684Z,100.00
2018-11-13T09:25:31.133Z,100.00
2018-11-13T09:28:00.310Z,100.00
2018-11-13T09:30:29.275Z,100.00
2018-11-13T09:32:58.229Z,100.00
2018-11-13T09:35:29.720Z,100.00
2018-11-13T09:37:58.859Z,100.00
2018-11-13T09:40:28.473Z,100.00
2018-11-13T09:42:58.066Z,100.00
2018-11-13T09:45:27.782Z,100.00
2018-11-13T09:47:57.841Z,100.00
2018-11-13T09:50:28.357Z,100.00
2018-11-13T09:52:57.506Z,100.00
2018-11-13T09:55:27.435Z,100.00
2018-11-13T09:57:56.597Z,100.00
2018-11-13T10:00:26.988Z,100.00
2018-11-13T10:02:59.190Z,100.00
2018-11-13T10:05:28.343Z,100.00
2018-11-13T10:07:58.523Z,100.00
2018-11-13T10:10:28.442Z,100.00
2018-11-13T10:12:57.614Z,100.00
2018-11-13T10:15:28.315Z,100.00
2018-11-13T10:17:58.360Z,100.00
2018-11-13T10:20:28.202Z,100.00
2018-11-13T10:23:00.171Z,100.00
2018-11-13T10:25:29.718Z,100.00
2018-11-13T10:27:59.257Z,100.00
2018-11-13T10:30:28.429Z,100.00
2018-11-13T10:32:58.519Z,100.00
2018-11-13T10:35:27.674Z,100.00
2018-11-13T10:37:56.817Z,100.00
2018-11-13T10:40:27.422Z,100.00
2018-11-13T10:42:56.581Z,100.00
2018-11-13T10:45:29.644Z,100.00
2018-11-13T10:47:58.845Z,100.00
2018-11-13T10:50:28.068Z,100.00
2018-11-13T10:52:58.018Z,100.00
2018-11-13T10:55:27.194Z,100.00
2018-11-13T10:57:56.951Z,100.00
2018-11-13T11:00:34.907Z,100.00
2018-11-13T11:03:18.222Z,100.00
2018-11-13T11:05:47.378Z,100.00
2018-11-13T11:08:17.363Z,100.00
2018-11-13T11:10:46.479Z,100.00
2018-11-13T11:13:15.873Z,99.76
2018-11-13T11:15:45.237Z,96.41
2018-11-13T11:18:16.478Z,98.72
2018-11-13T11:20:45.678Z,98.03
2018-11-13T11:23:14.845Z,97.11
2018-11-13T11:25:44.020Z,95.62
2018-11-13T11:28:13.941Z,95.44
2018-11-13T11:30:43.677Z,96.05
2018-11-13T11:33:13.079Z,95.40
2018-11-13T11:35:44.153Z,95.61
2018-11-13T11:38:13.431Z,96.83
2018-11-13T11:40:44.187Z,98.50
2018-11-13T11:43:13.333Z,99.40
2018-11-13T11:45:42.475Z,97.18
2018-11-13T11:48:11.642Z,97.28
2018-11-13T11:50:41.427Z,97.69
2018-11-13T11:53:10.719Z,97.67
2018-11-13T11:55:40.597Z,97.20
2018-11-13T11:58:09.369Z,96.01
2018-11-13T12:00:38.572Z,96.35
2018-11-13T12:03:07.723Z,99.32
2018-11-13T12:05:36.861Z,96.79
2018-11-13T12:08:06.031Z,98.85
2018-11-13T12:10:35.257Z,99.58
2018-11-13T12:13:04.475Z,100.00
2018-11-13T12:15:33.628Z,98.97
2018-11-13T12:18:02.862Z,99.33
2018-11-13T12:20:32.061Z,97.70
2018-11-13T12:23:01.258Z,99.86
2018-11-13T12:25:30.445Z,98.73
2018-11-13T12:27:59.578Z,99.28
2018-11-13T12:30:29.261Z,98.72
2018-11-13T12:32:58.385Z,97.94
2018-11-13T12:35:27.588Z,94.93
2018-11-13T12:37:56.767Z,95.16
2018-11-13T12:40:26.254Z,94.79
2018-11-13T12:42:55.793Z,96.47
2018-11-13T12:45:24.931Z,97.77
2018-11-13T12:47:54.063Z,95.84
2018-11-13T12:50:23.741Z,93.61
2018-11-13T12:52:52.922Z,92.07
2018-11-13T12:55:23.533Z,93.52
2018-11-13T12:57:52.680Z,91.42
2018-11-13T13:00:24.161Z,89.67
2018-11-13T13:02:53.358Z,91.08
2018-11-13T13:05:23.106Z,91.34
2018-11-13T13:07:52.302Z,90.84
2018-11-13T13:10:22.161Z,90.27
2018-11-13T13:12:51.321Z,93.78
2018-11-13T13:15:20.995Z,92.42
2018-11-13T13:17:50.134Z,92.31
2018-11-13T13:20:23.856Z,90.52
2018-11-13T13:22:53.542Z,88.26
2018-11-13T13:25:23.688Z,87.98
2018-11-13T13:27:52.963Z,87.14
2018-11-13T13:30:24.985Z,88.10
2018-11-13T13:32:54.159Z,87.26
2018-11-13T13:36:01.487Z,85.44
2018-11-13T13:38:32.228Z,83.17
2018-11-13T13:41:02.283Z,82.45
2018-11-13T13:43:32.011Z,81.23
2018-11-13T13:46:01.315Z,83.80
2018-11-13T13:48:31.018Z,82.12
2018-11-13T13:51:00.154Z,83.85
2018-11-13T13:53:29.367Z,82.77
2018-11-13T13:55:58.603Z,84.37
2018-11-13T13:58:27.803Z,84.08
2018-11-13T14:00:58.034Z,85.50
2018-11-13T14:03:27.110Z,85.39
2018-11-13T14:05:56.313Z,84.55
2018-11-13T14:08:25.641Z,84.70
2018-11-13T14:10:54.818Z,85.11
2018-11-13T14:13:24.062Z,84.47
2018-11-13T14:15:53.197Z,84.43
2018-11-13T14:18:22.412Z,83.01
2018-11-13T14:20:51.617Z,84.08
2018-11-13T14:23:21.071Z,84.10
2018-11-13T14:25:50.198Z,84.35
2018-11-13T14:28:19.359Z,84.92
2018-11-13T14:30:48.774Z,86.09
2018-11-13T14:33:18.035Z,89.58
2018-11-13T14:35:47.214Z,88.96
2018-11-13T14:38:16.409Z,89.27
2018-11-13T14:40:46.953Z,91.49
2018-11-13T14:43:16.419Z,91.89
2018-11-13T14:45:45.958Z,93.30
2018-11-13T14:48:15.284Z,94.27
2018-11-13T14:50:44.582Z,94.44
2018-11-13T14:53:14.534Z,94.14
2018-11-13T14:55:45.052Z,93.95
2018-11-13T14:58:15.551Z,92.73
2018-11-13T15:00:44.806Z,93.69
2018-11-13T15:03:16.375Z,92.69
2018-11-13T15:05:45.535Z,93.49
2018-11-13T15:08:14.671Z,93.73
2018-11-13T15:10:50.201Z,94.48
2018-11-13T15:13:19.988Z,94.66
2018-11-13T15:15:49.179Z,95.75
2018-11-13T15:18:20.868Z,97.31
2018-11-13T15:20:51.359Z,98.53
2018-11-13T15:23:20.729Z,98.15
2018-11-13T15:25:50.523Z,98.64
2018-11-13T15:28:20.267Z,99.14
2018-11-13T15:30:51.213Z,99.17
2018-11-13T15:33:24.950Z,98.83
2018-11-13T15:35:54.790Z,100.00
2018-11-13T15:38:23.963Z,100.00
2018-11-13T15:40:53.304Z,100.00
2018-11-13T15:43:22.971Z,100.00
2018-11-13T15:45:52.141Z,100.00
2018-11-13T15:48:21.470Z,100.00
2018-11-13T15:50:50.623Z,100.00
2018-11-13T15:53:20.415Z,100.00
2018-11-13T15:55:50.166Z,100.00
2018-11-13T15:58:19.461Z,100.00
2018-11-13T16:00:48.898Z,100.00
2018-11-13T16:03:24.407Z,100.00
2018-11-13T16:05:55.643Z,100.00
2018-11-13T16:08:24.783Z,100.00
2018-11-13T16:10:53.954Z,100.00
2018-11-13T16:13:23.899Z,100.00
2018-11-13T16:15:53.035Z,100.00
2018-11-13T16:18:24.394Z,100.00
2018-11-13T16:20:53.534Z,100.00
2018-11-13T16:23:22.300Z,100.00
2018-11-13T16:25:52.454Z,100.00
2018-11-13T16:28:21.742Z,100.00
2018-11-13T16:30:51.101Z,100.00
2018-11-13T16:33:20.293Z,100.00
2018-11-13T16:36:03.453Z,100.00
2018-11-13T16:38:33.098Z,100.00
2018-11-13T16:41:02.241Z,100.00
2018-11-13T16:43:31.386Z,100.00
2018-11-13T16:46:00.615Z,100.00
2018-11-13T16:48:30.011Z,100.00
2018-11-13T16:50:59.566Z,100.00
2018-11-13T16:53:28.918Z,100.00
2018-11-13T16:56:04.712Z,100.00
2018-11-13T16:58:34.706Z,100.00
2018-11-13T17:01:05.057Z,100.00
2018-11-13T17:03:34.494Z,100.00
2018-11-13T17:06:03.734Z,100.00
2018-11-13T17:08:32.813Z,100.00
2018-11-13T17:11:02.043Z,100.00
2018-11-13T17:13:31.528Z,100.00
2018-11-13T17:16:00.785Z,100.00
2018-11-13T17:18:29.914Z,100.00
2018-11-13T17:20:59.103Z,100.00
2018-11-13T17:23:29.787Z,100.00
2018-11-13T17:25:58.942Z,100.00
2018-11-13T17:28:28.423Z,100.00
2018-11-13T17:30:57.707Z,100.00
2018-11-13T17:33:26.855Z,100.00
2018-11-13T17:35:56.234Z,100.00
2018-11-13T17:38:25.573Z,100.00
2018-11-13T17:40:54.910Z,100.00
2018-11-13T17:43:24.887Z,100.00
2018-11-13T17:45:56.455Z,100.00
2018-11-13T17:48:25.610Z,100.00
2018-11-13T17:50:54.782Z,100.00
2018-11-13T17:53:26.129Z,100.00
2018-11-13T17:55:55.293Z,100.00
2018-11-13T17:58:24.454Z,100.00
2018-11-13T18:00:54.017Z,100.00
2018-11-13T18:03:23.188Z,100.00
2018-11-13T18:05:53.398Z,100.00
2018-11-13T18:08:23.423Z,100.00
2018-11-13T18:10:52.677Z,100.00
2018-11-13T18:13:22.059Z,100.00
2018-11-13T18:15:53.638Z,100.00
2018-11-13T18:18:22.862Z,100.00
2018-11-13T18:20:53.627Z,100.00
2018-11-13T18:23:22.800Z,100.00
2018-11-13T18:25:53.119Z,100.00
2018-11-13T18:28:22.659Z,100.00
2018-11-13T18:30:51.785Z,100.00
2018-11-13T18:33:21.054Z,100.00
2018-11-13T18:35:50.262Z,100.00
2018-11-13T18:38:20.484Z,100.00
2018-11-13T18:40:49.643Z,100.00
2018-11-13T18:43:18.822Z,100.00
2018-11-13T18:45:48.746Z,100.00
2018-11-13T18:48:18.034Z,100.00
2018-11-13T18:50:47.478Z,100.00
2018-11-13T18:53:16.685Z,100.00
2018-11-13T18:55:48.022Z,100.00
2018-11-13T18:58:17.420Z,100.00
2018-11-13T19:00:46.566Z,100.00
2018-11-13T19:03:16.120Z,100.00
2018-11-13T19:05:45.587Z,100.00
2018-11-13T19:08:14.995Z,100.00
2018-11-13T19:10:46.156Z,100.00
2018-11-13T19:13:23.402Z,100.00
2018-11-13T19:15:56.273Z,100.00
2018-11-13T19:18:25.508Z,100.00
2018-11-13T19:20:54.697Z,100.00
2018-11-13T19:23:24.010Z,100.00
2018-11-13T19:25:53.172Z,100.00
2018-11-13T19:28:22.470Z,100.00
2018-11-13T19:30:52.122Z,100.00
2018-11-13T19:33:21.929Z,100.00
2018-11-13T19:35:51.816Z,100.00
2018-11-13T19:38:21.083Z,100.00
2018-11-13T19:40:51.283Z,100.00
2018-11-13T19:43:20.522Z,100.00
2018-11-13T19:45:50.039Z,100.00
2018-11-13T19:48:19.648Z,100.00
2018-11-13T19:50:49.096Z,100.00
2018-11-13T19:53:18.411Z,100.00
2018-11-13T19:55:48.127Z,100.00
2018-11-13T19:58:17.498Z,100.00
2018-11-13T20:00:52.781Z,100.00
2018-11-13T20:03:22.327Z,100.00
2018-11-13T20:05:51.634Z,100.00
2018-11-13T20:08:21.283Z,100.00
2018-11-13T20:10:50.820Z,100.00
2018-11-13T20:13:20.389Z,100.00
2018-11-13T20:15:49.858Z,100.00
2018-11-13T20:18:19.144Z,100.00
2018-11-13T20:20:49.680Z,100.00
2018-11-13T20:23:20.519Z,100.00
2018-11-13T20:25:50.641Z,100.00
2018-11-13T20:28:20.070Z,100.00
2018-11-13T20:30:50.012Z,100.00
2018-11-13T20:33:19.509Z,100.00
2018-11-13T20:35:49.059Z,100.00
2018-11-13T20:38:18.418Z,100.00
2018-11-13T20:40:48.075Z,100.00
2018-11-13T20:43:18.232Z,100.00
2018-11-13T20:45:47.503Z,100.00
2018-11-13T20:48:16.853Z,100.00
2018-11-13T20:50:46.121Z,100.00
2018-11-13T20:53:15.407Z,100.00
2018-11-13T20:55:51.354Z,100.00
2018-11-13T20:58:20.725Z,100.00
2018-11-13T21:00:50.030Z,100.00
2018-11-13T21:03:19.265Z,100.00
2018-11-13T21:05:48.905Z,100.00
2018-11-13T21:08:18.175Z,100.00
2018-11-13T21:10:47.573Z,100.00
2018-11-13T21:13:17.426Z,100.00
2018-11-13T21:15:46.937Z,100.00
2018-11-13T21:18:16.186Z,100.00
2018-11-13T21:20:45.441Z,100.00
2018-11-13T21:23:14.763Z,100.00
2018-11-13T21:25:43.962Z,100.00
2018-11-13T21:28:20.437Z,100.00
2018-11-13T21:30:50.298Z,100.00
2018-11-13T21:33:19.587Z,100.00
2018-11-13T21:35:48.916Z,100.00
2018-11-13T21:38:18.103Z,100.00
2018-11-13T21:40:47.448Z,100.00
2018-11-13T21:43:16.758Z,100.00
2018-11-13T21:45:47.691Z,100.00
2018-11-13T21:48:16.935Z,100.00
2018-11-13T21:50:49.182Z,100.00
2018-11-13T21:53:19.076Z,100.00
2018-11-13T21:55:48.489Z,100.00
2018-11-13T21:58:18.581Z,100.00
2018-11-13T22:00:48.475Z,100.00
2018-11-13T22:03:18.194Z,100.00
2018-11-13T22:05:47.700Z,100.00
2018-11-13T22:08:17.182Z,100.00
2018-11-13T22:10:46.426Z,100.00
2018-11-13T22:13:17.048Z,100.00
2018-11-13T22:15:46.393Z,100.00
2018-11-13T22:18:17.391Z,100.00
2018-11-13T22:20:46.674Z,100.00
2018-11-13T22:23:16.054Z,100.00
2018-11-13T22:25:45.344Z,100.00
2018-11-13T22:28:14.687Z,100.00
2018-11-13T22:30:43.940Z,100.00
2018-11-13T22:33:13.385Z,100.00
2018-11-13T22:35:42.979Z,100.00
2018-11-13T22:38:12.014Z,100.00
2018-11-13T22:40:41.209Z,100.00
2018-11-13T22:43:10.588Z,100.00
2018-11-13T22:45:42.246Z,100.00
2018-11-13T22:48:11.606Z,100.00
2018-11-13T22:50:41.739Z,100.00
2018-11-13T22:53:11.083Z,100.00
2018-11-13T22:55:40.350Z,100.00
2018-11-13T22:58:10.122Z,100.00
2018-11-13T23:00:44.017Z,100.00
2018-11-13T23:03:15.451Z,100.00
2018-11-13T23:05:45.413Z,100.00
2018-11-13T23:08:16.174Z,100.00
2018-11-13T23:10:45.625Z,100.00
2018-11-13T23:13:14.989Z,100.00
2018-11-13T23:15:44.915Z,100.00
2018-11-13T23:18:14.194Z,100.00
2018-11-13T23:20:45.156Z,100.00
2018-11-13T23:23:14.986Z,100.00
2018-11-13T23:25:44.356Z,100.00
2018-11-13T23:28:13.560Z,100.00
2018-11-13T23:30:42.857Z,100.00
2018-11-13T23:33:11.956Z,100.00
2018-11-13T23:35:41.239Z,100.00
2018-11-13T23:38:11.307Z,100.00
2018-11-13T23:40:40.497Z,100.00
2018-11-13T23:43:09.719Z,100.00
2018-11-13T23:45:39.810Z,100.00
2018-11-13T23:48:09.078Z,100.00
2018-11-13T23:50:38.335Z,100.00
2018-11-13T23:53:07.799Z,100.00
2018-11-13T23:55:37.120Z,100.00
2018-11-13T23:58:06.299Z,100.00
